Terminal Aerodrome Forecast
Issued by NWS

Home | Current Version | Previous Version | Text Only | Print | Product List | Glossary On
Versions: 1 2 3 4 5 6 7 8 9 10 11 12 13 14 15 16 17 18 19
100
FTPA31 PHFO 102320
TAFHOG
TAF
PHOG 102320Z 1100/1124 VRB05KT 6SM RA BR SCT015 BKN040 OVC070
      TEMPO 1100/1102 3SM RA BR BKN008 OVC020
     FM110500 02005KT P6SM VCSH SCT020 BKN060 OVC100
     FM110800 13005KT P6SM VCSH SCT020 BKN060 OVC100
     FM112200 02008KT P6SM VCSH FEW030 BKN060
      AMD LTD TO VIS AND WIND 1109/1116=

USA.gov is the U.S. government's official web portal to all federal, state and local government web resources and services.